sensor_id;sensor_type;location;lat;lon;timestamp;pressure;altitude;pressure_sealevel;temperature;humidity
71392;BME280;59205;50.610;12.638;2022-10-16T00:00:56;95464.19;;;14.48;100.00
71392;BME280;59205;50.610;12.638;2022-10-16T00:03:22;95458.44;;;14.41;100.00
71392;BME280;59205;50.610;12.638;2022-10-16T00:05:47;95466.16;;;14.42;100.00
71392;BME280;59205;50.610;12.638;2022-10-16T00:08:13;95466.41;;;14.44;100.00
71392;BME280;59205;50.610;12.638;2022-10-16T00:10:39;95479.53;;;14.40;100.00
71392;BME280;59205;50.610;12.638;2022-10-16T00:13:05;95484.00;;;14.43;100.00
71392;BME280;59205;50.610;12.638;2022-10-16T00:15:34;95480.03;;;14.44;100.00
71392;BME280;59205;50.610;12.638;2022-10-16T00:18:02;95485.22;;;14.42;100.00
71392;BME280;59205;50.610;12.638;2022-10-16T00:20:27;95481.53;;;14.45;100.00
71392;BME280;59205;50.610;12.638;2022-10-16T00:22:53;95494.44;;;14.50;100.00
71392;BME280;59205;50.610;12.638;2022-10-16T00:25:18;95508.59;;;14.49;100.00
71392;BME280;59205;50.610;12.638;2022-10-16T00:27:44;95509.81;;;14.48;100.00
71392;BME280;59205;50.610;12.638;2022-10-16T00:30:09;95521.50;;;14.54;100.00
71392;BME280;59205;50.610;12.638;2022-10-16T00:32:35;95529.63;;;14.48;100.00
71392;BME280;59205;50.610;12.638;2022-10-16T00:35:00;95531.88;;;14.50;100.00
71392;BME280;59205;50.610;12.638;2022-10-16T00:37:26;95529.19;;;14.55;100.00
71392;BME280;59205;50.610;12.638;2022-10-16T00:39:51;95523.28;;;14.62;100.00
71392;BME280;59205;50.610;12.638;2022-10-16T00:42:18;95526.56;;;14.72;100.00
71392;BME280;59205;50.610;12.638;2022-10-16T00:44:56;95517.38;;;14.69;100.00
71392;BME280;59205;50.610;12.638;2022-10-16T00:47:40;95516.41;;;14.72;100.00
71392;BME280;59205;50.610;12.638;2022-10-16T00:50:18;95517.88;;;14.73;100.00
71392;BME280;59205;50.610;12.638;2022-10-16T00:52:47;95524.38;;;14.76;100.00
71392;BME280;59205;50.610;12.638;2022-10-16T00:55:13;95518.13;;;14.70;100.00
71392;BME280;59205;50.610;12.638;2022-10-16T00:57:39;95522.84;;;14.69;100.00
71392;BME280;59205;50.610;12.638;2022-10-16T01:00:08;95524.84;;;14.74;100.00
71392;BME280;59205;50.610;12.638;2022-10-16T01:02:34;95527.34;;;14.78;99.81
71392;BME280;59205;50.610;12.638;2022-10-16T01:04:59;95535.75;;;14.74;99.79
71392;BME280;59205;50.610;12.638;2022-10-16T01:07:58;95530.03;;;14.72;100.00
71392;BME280;59205;50.610;12.638;2022-10-16T01:10:44;95535.03;;;14.74;99.40
71392;BME280;59205;50.610;12.638;2022-10-16T01:13:38;95532.28;;;14.74;99.28
71392;BME280;59205;50.610;12.638;2022-10-16T01:16:11;95515.16;;;14.68;99.57
71392;BME280;59205;50.610;12.638;2022-10-16T01:19:01;95516.34;;;14.61;99.34
71392;BME280;59205;50.610;12.638;2022-10-16T01:21:30;95515.59;;;14.61;98.84
71392;BME280;59205;50.610;12.638;2022-10-16T01:27:03;95514.25;;;14.45;99.24
71392;BME280;59205;50.610;12.638;2022-10-16T01:32:10;95513.06;;;14.52;99.15
71392;BME280;59205;50.610;12.638;2022-10-16T01:34:48;95521.19;;;14.46;99.13
71392;BME280;59205;50.610;12.638;2022-10-16T01:37:22;95514.97;;;14.40;99.76
71392;BME280;59205;50.610;12.638;2022-10-16T01:39:48;95514.91;;;14.35;99.75
71392;BME280;59205;50.610;12.638;2022-10-16T01:42:22;95526.75;;;14.26;100.00
71392;BME280;59205;50.610;12.638;2022-10-16T01:44:51;95521.59;;;14.34;100.00
71392;BME280;59205;50.610;12.638;2022-10-16T01:47:19;95523.56;;;14.33;99.92
71392;BME280;59205;50.610;12.638;2022-10-16T01:49:47;95527.28;;;14.30;100.00
71392;BME280;59205;50.610;12.638;2022-10-16T01:52:16;95532.41;;;14.23;100.00
71392;BME280;59205;50.610;12.638;2022-10-16T01:54:46;95534.47;;;14.28;100.00
71392;BME280;59205;50.610;12.638;2022-10-16T01:57:13;95533.44;;;14.25;100.00
71392;BME280;59205;50.610;12.638;2022-10-16T01:59:54;95527.31;;;14.10;100.00
71392;BME280;59205;50.610;12.638;2022-10-16T02:02:22;95538.13;;;14.25;100.00
71392;BME280;59205;50.610;12.638;2022-10-16T02:04:58;95532.00;;;14.30;100.00
71392;BME280;59205;50.610;12.638;2022-10-16T02:07:27;95528.56;;;14.35;100.00
71392;BME280;59205;50.610;12.638;2022-10-16T02:09:52;95544.97;;;14.46;100.00
71392;BME280;59205;50.610;12.638;2022-10-16T02:12:25;95538.03;;;14.45;100.00
71392;BME280;59205;50.610;12.638;2022-10-16T02:14:51;95535.59;;;14.52;100.00
71392;BME280;59205;50.610;12.638;2022-10-16T02:17:17;95539.41;;;14.60;99.73
71392;BME280;59205;50.610;12.638;2022-10-16T02:19:44;95536.22;;;14.67;99.55
71392;BME280;59205;50.610;12.638;2022-10-16T02:22:21;95529.78;;;14.70;99.05
71392;BME280;59205;50.610;12.638;2022-10-16T02:27:37;95525.75;;;14.60;99.69
71392;BME280;59205;50.610;12.638;2022-10-16T02:30:11;95518.81;;;14.59;100.00
71392;BME280;59205;50.610;12.638;2022-10-16T02:32:42;95513.06;;;14.52;100.00
71392;BME280;59205;50.610;12.638;2022-10-16T02:35:11;95515.28;;;14.53;100.00
71392;BME280;59205;50.610;12.638;2022-10-16T02:37:38;95525.94;;;14.51;100.00
71392;BME280;59205;50.610;12.638;2022-10-16T02:40:06;95518.00;;;14.53;100.00
71392;BME280;59205;50.610;12.638;2022-10-16T02:42:37;95526.44;;;14.55;100.00
71392;BME280;59205;50.610;12.638;2022-10-16T02:45:04;95520.47;;;14.51;100.00
71392;BME280;59205;50.610;12.638;2022-10-16T02:47:30;95521.97;;;14.47;100.00
71392;BME280;59205;50.610;12.638;2022-10-16T02:49:56;95518.00;;;14.48;100.00
71392;BME280;59205;50.610;12.638;2022-10-16T02:52:21;95513.53;;;14.50;100.00
71392;BME280;59205;50.610;12.638;2022-10-16T02:54:47;95517.25;;;14.47;100.00
71392;BME280;59205;50.610;12.638;2022-10-16T02:57:12;95518.72;;;14.48;100.00
71392;BME280;59205;50.610;12.638;2022-10-16T02:59:38;95520.94;;;14.44;100.00
71392;BME280;59205;50.610;12.638;2022-10-16T03:02:04;95524.84;;;14.38;100.00
71392;BME280;59205;50.610;12.638;2022-10-16T03:04:29;95536.78;;;14.40;100.00
71392;BME280;59205;50.610;12.638;2022-10-16T03:06:54;95532.31;;;14.43;100.00
71392;BME280;59205;50.610;12.638;2022-10-16T03:09:20;95532.56;;;14.39;100.00
71392;BME280;59205;50.610;12.638;2022-10-16T03:11:45;95525.38;;;14.42;100.00
71392;BME280;59205;50.610;12.638;2022-10-16T03:14:11;95530.59;;;14.45;100.00
71392;BME280;59205;50.610;12.638;2022-10-16T03:16:36;95527.41;;;14.47;100.00
71392;BME280;59205;50.610;12.638;2022-10-16T03:19:02;95529.38;;;14.46;100.00
71392;BME280;59205;50.610;12.638;2022-10-16T03:21:27;95545.69;;;14.41;100.00
71392;BME280;59205;50.610;12.638;2022-10-16T03:23:53;95542.00;;;14.44;100.00
71392;BME280;59205;50.610;12.638;2022-10-16T03:26:18;95550.94;;;14.44;100.00
71392;BME280;59205;50.610;12.638;2022-10-16T03:28:44;95555.94;;;14.51;99.82
71392;BME280;59205;50.610;12.638;2022-10-16T03:31:09;95551.72;;;14.50;99.81
71392;BME280;59205;50.610;12.638;2022-10-16T03:33:35;95553.91;;;14.46;100.00
71392;BME280;59205;50.610;12.638;2022-10-16T03:36:00;95551.13;;;14.41;100.00
71392;BME280;59205;50.610;12.638;2022-10-16T03:38:26;95557.88;;;14.45;100.00
71392;BME280;59205;50.610;12.638;2022-10-16T03:40:51;95565.28;;;14.45;100.00
71392;BME280;59205;50.610;12.638;2022-10-16T03:43:17;95570.72;;;14.39;100.00
71392;BME280;59205;50.610;12.638;2022-10-16T03:45:42;95571.53;;;14.20;100.00
71392;BME280;59205;50.610;12.638;2022-10-16T03:48:08;95576.19;;;14.14;100.00
71392;BME280;59205;50.610;12.638;2022-10-16T03:50:36;95580.78;;;14.02;100.00
71392;BME280;59205;50.610;12.638;2022-10-16T03:53:02;95578.00;;;13.97;100.00
71392;BME280;59205;50.610;12.638;2022-10-16T03:55:27;95564.88;;;13.95;100.00
71392;BME280;59205;50.610;12.638;2022-10-16T03:57:52;95547.06;;;14.00;100.00
71392;BME280;59205;50.610;12.638;2022-10-16T04:00:18;95553.13;;;14.15;100.00
71392;BME280;59205;50.610;12.638;2022-10-16T04:02:44;95560.03;;;14.10;100.00
71392;BME280;59205;50.610;12.638;2022-10-16T04:05:10;95574.84;;;14.04;100.00
71392;BME280;59205;50.610;12.638;2022-10-16T04:07:35;95570.31;;;13.95;100.00
71392;BME280;59205;50.610;12.638;2022-10-16T04:10:01;95568.19;;;14.05;100.00
71392;BME280;59205;50.610;12.638;2022-10-16T04:12:27;95565.97;;;14.09;100.00
71392;BME280;59205;50.610;12.638;2022-10-16T04:14:52;95567.16;;;14.02;100.00
71392;BME280;59205;50.610;12.638;2022-10-16T04:17:18;95564.16;;;14.00;100.00
71392;BME280;59205;50.610;12.638;2022-10-16T04:19:43;95579.44;;;13.92;100.00
71392;BME280;59205;50.610;12.638;2022-10-16T04:22:09;95580.66;;;13.91;100.00
71392;BME280;59205;50.610;12.638;2022-10-16T04:24:34;95586.88;;;13.92;100.00
71392;BME280;59205;50.610;12.638;2022-10-16T04:27:00;95593.81;;;13.93;100.00
71392;BME280;59205;50.610;12.638;2022-10-16T04:29:25;95581.22;;;13.95;100.00
71392;BME280;59205;50.610;12.638;2022-10-16T04:31:51;95579.06;;;14.05;100.00
71392;BME280;59205;50.610;12.638;2022-10-16T04:34:16;95573.13;;;14.06;100.00
71392;BME280;59205;50.610;12.638;2022-10-16T04:36:42;95566.88;;;14.00;100.00
71392;BME280;59205;50.610;12.638;2022-10-16T04:39:07;95579.00;;;13.99;100.00
71392;BME280;59205;50.610;12.638;2022-10-16T04:41:33;95585.16;;;13.94;100.00
71392;BME280;59205;50.610;12.638;2022-10-16T04:43:59;95585.91;;;13.95;100.00
71392;BME280;59205;50.610;12.638;2022-10-16T04:46:24;95588.34;;;13.93;100.00
71392;BME280;59205;50.610;12.638;2022-10-16T04:48:50;95594.88;;;14.01;100.00
71392;BME280;59205;50.610;12.638;2022-10-16T04:51:15;95602.56;;;14.02;100.00
71392;BME280;59205;50.610;12.638;2022-10-16T04:53:41;95603.53;;;13.99;100.00
71392;BME280;59205;50.610;12.638;2022-10-16T04:56:06;95595.09;;;13.97;100.00
71392;BME280;59205;50.610;12.638;2022-10-16T04:58:32;95594.56;;;13.93;100.00
71392;BME280;59205;50.610;12.638;2022-10-16T05:00:58;95585.44;;;13.96;100.00
71392;BME280;59205;50.610;12.638;2022-10-16T05:03:23;95588.34;;;13.93;100.00
71392;BME280;59205;50.610;12.638;2022-10-16T05:05:49;95590.28;;;13.87;100.00
71392;BME280;59205;50.610;12.638;2022-10-16T05:08:15;95593.53;;;13.91;100.00
71392;BME280;59205;50.610;12.638;2022-10-16T05:10:42;95593.81;;;13.93;100.00
71392;BME280;59205;50.610;12.638;2022-10-16T05:13:07;95596.72;;;13.89;100.00
71392;BME280;59205;50.610;12.638;2022-10-16T05:15:33;95611.69;;;13.74;100.00
71392;BME280;59205;50.610;12.638;2022-10-16T05:17:59;95603.72;;;13.70;100.00
71392;BME280;59205;50.610;12.638;2022-10-16T05:20:24;95619.38;;;13.75;100.00
71392;BME280;59205;50.610;12.638;2022-10-16T05:22:50;95614.03;;;13.86;100.00
71392;BME280;59205;50.610;12.638;2022-10-16T05:25:16;95619.28;;;13.90;100.00
71392;BME280;59205;50.610;12.638;2022-10-16T05:27:41;95632.41;;;13.91;100.00
71392;BME280;59205;50.610;12.638;2022-10-16T05:30:07;95634.22;;;13.94;100.00
71392;BME280;59205;50.610;12.638;2022-10-16T05:32:33;95627.78;;;13.97;100.00
71392;BME280;59205;50.610;12.638;2022-10-16T05:34:58;95628.53;;;13.98;100.00
71392;BME280;59205;50.610;12.638;2022-10-16T05:37:27;95625.28;;;13.94;100.00
71392;BME280;59205;50.610;12.638;2022-10-16T05:39:53;95633.25;;;13.97;100.00
71392;BME280;59205;50.610;12.638;2022-10-16T05:42:19;95626.13;;;14.05;100.00
71392;BME280;59205;50.610;12.638;2022-10-16T05:44:44;95638.25;;;14.04;100.00
71392;BME280;59205;50.610;12.638;2022-10-16T05:47:12;95632.09;;;14.04;100.00
71392;BME280;59205;50.610;12.638;2022-10-16T05:49:37;95643.78;;;14.10;100.00
71392;BME280;59205;50.610;12.638;2022-10-16T05:52:03;95641.59;;;14.14;100.00
71392;BME280;59205;50.610;12.638;2022-10-16T05:54:29;95632.47;;;14.17;100.00
71392;BME280;59205;50.610;12.638;2022-10-16T05:56:54;95636.75;;;14.23;100.00
71392;BME280;59205;50.610;12.638;2022-10-16T05:59:19;95638.50;;;14.26;100.00
71392;BME280;59205;50.610;12.638;2022-10-16T06:01:45;95644.75;;;14.32;100.00
71392;BME280;59205;50.610;12.638;2022-10-16T06:04:10;95652.94;;;14.32;100.00
71392;BME280;59205;50.610;12.638;2022-10-16T06:06:36;95659.63;;;14.31;100.00
71392;BME280;59205;50.610;12.638;2022-10-16T06:09:02;95660.72;;;14.39;100.00
71392;BME280;59205;50.610;12.638;2022-10-16T06:11:29;95668.38;;;14.41;100.00
71392;BME280;59205;50.610;12.638;2022-10-16T06:13:57;95664.66;;;14.38;100.00
71392;BME280;59205;50.610;12.638;2022-10-16T06:16:24;95673.38;;;14.42;100.00
71392;BME280;59205;50.610;12.638;2022-10-16T06:18:51;95670.91;;;14.44;100.00
71392;BME280;59205;50.610;12.638;2022-10-16T06:21:18;95675.13;;;14.45;100.00
71392;BME280;59205;50.610;12.638;2022-10-16T06:23:48;95675.41;;;14.47;100.00
71392;BME280;59205;50.610;12.638;2022-10-16T06:26:19;95668.97;;;14.50;100.00
71392;BME280;59205;50.610;12.638;2022-10-16T06:28:45;95672.47;;;14.51;100.00
71392;BME280;59205;50.610;12.638;2022-10-16T06:31:11;95675.50;;;14.58;100.00
71392;BME280;59205;50.610;12.638;2022-10-16T06:33:38;95669.59;;;14.65;100.00
71392;BME280;59205;50.610;12.638;2022-10-16T06:36:06;95674.34;;;14.70;100.00
71392;BME280;59205;50.610;12.638;2022-10-16T06:38:32;95678.63;;;14.77;100.00
71392;BME280;59205;50.610;12.638;2022-10-16T06:40:58;95693.50;;;14.76;100.00
71392;BME280;59205;50.610;12.638;2022-10-16T06:43:23;95690.28;;;14.77;100.00
71392;BME280;59205;50.610;12.638;2022-10-16T06:45:56;95699.75;;;14.82;100.00
71392;BME280;59205;50.610;12.638;2022-10-16T06:48:23;95702.00;;;14.83;100.00
71392;BME280;59205;50.610;12.638;2022-10-16T06:51:14;95708.50;;;14.91;100.00
71392;BME280;59205;50.610;12.638;2022-10-16T06:53:43;95703.31;;;14.93;100.00
71392;BME280;59205;50.610;12.638;2022-10-16T06:56:13;95697.16;;;14.98;100.00
71392;BME280;59205;50.610;12.638;2022-10-16T06:58:38;95706.34;;;15.01;100.00
71392;BME280;59205;50.610;12.638;2022-10-16T07:01:04;95707.19;;;15.12;100.00
71392;BME280;59205;50.610;12.638;2022-10-16T07:03:30;95702.25;;;15.16;100.00
71392;BME280;59205;50.610;12.638;2022-10-16T07:05:56;95719.66;;;15.19;100.00
71392;BME280;59205;50.610;12.638;2022-10-16T07:08:22;95723.41;;;15.27;100.00
71392;BME280;59205;50.610;12.638;2022-10-16T07:10:48;95726.53;;;15.40;100.00
71392;BME280;59205;50.610;12.638;2022-10-16T07:13:14;95735.72;;;15.42;100.00
71392;BME280;59205;50.610;12.638;2022-10-16T07:15:40;95740.69;;;15.43;100.00
71392;BME280;59205;50.610;12.638;2022-10-16T07:18:06;95737.75;;;15.47;100.00
71392;BME280;59205;50.610;12.638;2022-10-16T07:20:32;95743.28;;;15.58;100.00
71392;BME280;59205;50.610;12.638;2022-10-16T07:22:58;95747.03;;;15.60;99.84
71392;BME280;59205;50.610;12.638;2022-10-16T07:25:24;95745.84;;;15.67;98.76
71392;BME280;59205;50.610;12.638;2022-10-16T07:27:50;95747.03;;;15.60;99.13
71392;BME280;59205;50.610;12.638;2022-10-16T07:30:16;95750.84;;;15.74;98.22
71392;BME280;59205;50.610;12.638;2022-10-16T07:32:42;95746.41;;;15.82;97.66
71392;BME280;59205;50.610;12.638;2022-10-16T07:35:08;95747.91;;;15.88;96.89
71392;BME280;59205;50.610;12.638;2022-10-16T07:37:33;95754.19;;;16.00;96.57
71392;BME280;59205;50.610;12.638;2022-10-16T07:39:59;95757.78;;;16.22;95.00
71392;BME280;59205;50.610;12.638;2022-10-16T07:42:24;95765.84;;;16.42;94.13
71392;BME280;59205;50.610;12.638;2022-10-16T07:44:50;95756.66;;;16.51;92.80
71392;BME280;59205;50.610;12.638;2022-10-16T07:47:15;95753.84;;;16.34;94.42
71392;BME280;59205;50.610;12.638;2022-10-16T07:49:41;95761.03;;;16.26;94.58
71392;BME280;59205;50.610;12.638;2022-10-16T07:52:07;95756.31;;;16.32;94.67
71392;BME280;59205;50.610;12.638;2022-10-16T07:54:33;95757.53;;;16.26;94.33
71392;BME280;59205;50.610;12.638;2022-10-16T07:56:58;95757.31;;;16.29;93.40
71392;BME280;59205;50.610;12.638;2022-10-16T07:59:24;95759.56;;;16.31;94.08
71392;BME280;59205;50.610;12.638;2022-10-16T08:01:49;95753.88;;;16.40;92.62
71392;BME280;59205;50.610;12.638;2022-10-16T08:04:15;95745.72;;;16.51;92.22
71392;BME280;59205;50.610;12.638;2022-10-16T08:06:41;95759.16;;;16.60;91.49
71392;BME280;59205;50.610;12.638;2022-10-16T08:09:07;95767.16;;;16.63;91.27
71392;BME280;59205;50.610;12.638;2022-10-16T08:11:33;95763.66;;;16.63;91.67
71392;BME280;59205;50.610;12.638;2022-10-16T08:13:59;95761.91;;;16.60;91.97
71392;BME280;59205;50.610;12.638;2022-10-16T08:16:24;95770.59;;;16.53;91.58
71392;BME280;59205;50.610;12.638;2022-10-16T08:18:50;95778.78;;;16.47;91.82
71392;BME280;59205;50.610;12.638;2022-10-16T08:21:19;95771.84;;;16.52;92.07
71392;BME280;59205;50.610;12.638;2022-10-16T08:23:45;95773.34;;;16.58;91.64
71392;BME280;59205;50.610;12.638;2022-10-16T08:26:11;95792.31;;;16.73;90.73
71392;BME280;59205;50.610;12.638;2022-10-16T08:28:37;95795.53;;;16.77;91.01
71392;BME280;59205;50.610;12.638;2022-10-16T08:31:10;95799.53;;;16.87;90.89
71392;BME280;59205;50.610;12.638;2022-10-16T08:33:38;95805.28;;;16.83;89.24
71392;BME280;59205;50.610;12.638;2022-10-16T08:36:05;95812.44;;;16.75;89.22
71392;BME280;59205;50.610;12.638;2022-10-16T08:38:31;95806.00;;;16.84;88.96
71392;BME280;59205;50.610;12.638;2022-10-16T08:49:11;95817.00;;;16.95;88.65
71392;BME280;59205;50.610;12.638;2022-10-16T08:51:39;95812.03;;;17.10;87.00
71392;BME280;59205;50.610;12.638;2022-10-16T08:57:00;95810.78;;;17.16;86.19
71392;BME280;59205;50.610;12.638;2022-10-16T08:59:32;95831.72;;;17.24;85.66
71392;BME280;59205;50.610;12.638;2022-10-16T09:01:58;95833.97;;;17.26;85.26
71392;BME280;59205;50.610;12.638;2022-10-16T09:04:54;95827.28;;;17.38;85.56
71392;BME280;59205;50.610;12.638;2022-10-16T09:07:35;95823.06;;;17.42;85.24
71392;BME280;59205;50.610;12.638;2022-10-16T09:10:15;95829.25;;;17.32;84.94
71392;BME280;59205;50.610;12.638;2022-10-16T09:15:50;95831.50;;;17.33;84.79
71392;BME280;59205;50.610;12.638;2022-10-16T09:20:57;95834.00;;;17.53;83.20
71392;BME280;59205;50.610;12.638;2022-10-16T09:23:26;95843.97;;;17.73;82.81
71392;BME280;59205;50.610;12.638;2022-10-16T09:25:53;95843.97;;;17.84;82.02
71392;BME280;59205;50.610;12.638;2022-10-16T09:28:19;95850.94;;;17.85;82.84
71392;BME280;59205;50.610;12.638;2022-10-16T09:30:46;95849.97;;;17.82;82.76
71392;BME280;59205;50.610;12.638;2022-10-16T09:33:14;95848.97;;;17.63;82.51
71392;BME280;59205;50.610;12.638;2022-10-16T09:35:54;95852.44;;;17.64;82.02
71392;BME280;59205;50.610;12.638;2022-10-16T09:38:29;95852.72;;;17.66;82.81
71392;BME280;59205;50.610;12.638;2022-10-16T09:40:56;95856.94;;;17.61;83.11
71392;BME280;59205;50.610;12.638;2022-10-16T09:45:59;95876.88;;;17.67;82.94
71392;BME280;59205;50.610;12.638;2022-10-16T09:48:28;95883.09;;;17.62;83.12
71392;BME280;59205;50.610;12.638;2022-10-16T09:50:59;95891.31;;;17.51;83.96
71392;BME280;59205;50.610;12.638;2022-10-16T09:53:37;95889.34;;;17.57;83.29
71392;BME280;59205;50.610;12.638;2022-10-16T09:56:03;95894.78;;;17.46;84.97
71392;BME280;59205;50.610;12.638;2022-10-16T09:58:31;95893.56;;;17.64;83.46
71392;BME280;59205;50.610;12.638;2022-10-16T10:00:58;95893.81;;;17.55;83.33
71392;BME280;59205;50.610;12.638;2022-10-16T10:03:36;95894.56;;;17.50;83.17
71392;BME280;59205;50.610;12.638;2022-10-16T10:06:15;95901.03;;;17.52;83.54
71392;BME280;59205;50.610;12.638;2022-10-16T10:08:57;95893.31;;;17.67;83.16
71392;BME280;59205;50.610;12.638;2022-10-16T10:14:43;95900.81;;;17.61;84.21
71392;BME280;59205;50.610;12.638;2022-10-16T10:19:39;95904.56;;;17.80;83.73
71392;BME280;59205;50.610;12.638;2022-10-16T10:30:17;95890.56;;;18.17;80.67
71392;BME280;59205;50.610;12.638;2022-10-16T10:32:49;95894.78;;;18.23;80.63
71392;BME280;59205;50.610;12.638;2022-10-16T10:35:28;95890.28;;;18.42;79.94
71392;BME280;59205;50.610;12.638;2022-10-16T10:38:06;95879.97;;;18.70;79.33
71392;BME280;59205;50.610;12.638;2022-10-16T10:40:56;95879.97;;;18.76;79.04
71392;BME280;59205;50.610;12.638;2022-10-16T10:46:50;95893.38;;;18.90;78.53
71392;BME280;59205;50.610;12.638;2022-10-16T11:03:03;95883.22;;;19.31;76.04
71392;BME280;59205;50.610;12.638;2022-10-16T11:05:43;95879.19;;;19.32;75.23
71392;BME280;59205;50.610;12.638;2022-10-16T11:08:16;95879.13;;;19.78;73.52
71392;BME280;59205;50.610;12.638;2022-10-16T11:11:02;95883.06;;;20.89;69.07
71392;BME280;59205;50.610;12.638;2022-10-16T11:16:31;95884.84;;;20.63;71.09
71392;BME280;59205;50.610;12.638;2022-10-16T11:21:35;95886.41;;;20.05;71.85
71392;BME280;59205;50.610;12.638;2022-10-16T11:27:20;95903.13;;;20.12;72.00
71392;BME280;59205;50.610;12.638;2022-10-16T11:29:55;95903.66;;;19.76;71.30
71392;BME280;59205;50.610;12.638;2022-10-16T11:32:28;95914.88;;;19.78;72.16
71392;BME280;59205;50.610;12.638;2022-10-16T11:35:11;95915.13;;;19.80;72.62
71392;BME280;59205;50.610;12.638;2022-10-16T11:37:42;95912.75;;;19.95;72.17
71392;BME280;59205;50.610;12.638;2022-10-16T11:40:21;95916.66;;;20.10;70.57
71392;BME280;59205;50.610;12.638;2022-10-16T11:42:54;95918.81;;;20.47;70.71
71392;BME280;59205;50.610;12.638;2022-10-16T11:46:15;95921.47;;;20.58;69.95
71392;BME280;59205;50.610;12.638;2022-10-16T11:48:55;95919.66;;;20.60;68.83
71392;BME280;59205;50.610;12.638;2022-10-16T11:51:32;95918.81;;;20.47;69.32
71392;BME280;59205;50.610;12.638;2022-10-16T11:56:24;95919.78;;;21.39;66.43
71392;BME280;59205;50.610;12.638;2022-10-16T11:59:00;95924.13;;;21.48;66.64
71392;BME280;59205;50.610;12.638;2022-10-16T12:01:36;95919.59;;;21.50;66.32
71392;BME280;59205;50.610;12.638;2022-10-16T12:06:55;95913.59;;;20.67;68.50
71392;BME280;59205;50.610;12.638;2022-10-16T12:09:29;95925.72;;;20.05;71.70
71392;BME280;59205;50.610;12.638;2022-10-16T12:11:55;95920.63;;;19.80;72.45
71392;BME280;59205;50.610;12.638;2022-10-16T12:19:44;95932.38;;;19.80;73.57
71392;BME280;59205;50.610;12.638;2022-10-16T12:22:17;95932.06;;;20.24;72.96
71392;BME280;59205;50.610;12.638;2022-10-16T12:24:43;95939.78;;;20.26;72.31
71392;BME280;59205;50.610;12.638;2022-10-16T12:27:31;95931.28;;;19.89;72.75
71392;BME280;59205;50.610;12.638;2022-10-16T12:29:59;95934.03;;;19.59;73.66
71392;BME280;59205;50.610;12.638;2022-10-16T12:32:37;95936.56;;;19.87;72.81
71392;BME280;59205;50.610;12.638;2022-10-16T12:35:05;95939.28;;;19.92;71.96
71392;BME280;59205;50.610;12.638;2022-10-16T12:37:34;95950.03;;;19.96;72.58
71392;BME280;59205;50.610;12.638;2022-10-16T12:40:13;95936.28;;;19.90;73.16
71392;BME280;59205;50.610;12.638;2022-10-16T12:42:39;95946.63;;;19.79;73.90
71392;BME280;59205;50.610;12.638;2022-10-16T12:45:30;95951.19;;;19.71;73.51
71392;BME280;59205;50.610;12.638;2022-10-16T12:47:57;95944.44;;;19.72;73.16
71392;BME280;59205;50.610;12.638;2022-10-16T12:52:54;95956.91;;;19.78;73.77
71392;BME280;59205;50.610;12.638;2022-10-16T12:55:21;95955.13;;;19.81;73.79
71392;BME280;59205;50.610;12.638;2022-10-16T13:00:56;95959.25;;;19.58;73.86
71392;BME280;59205;50.610;12.638;2022-10-16T13:03:55;95959.28;;;19.52;74.78
71392;BME280;59205;50.610;12.638;2022-10-16T13:06:56;95947.84;;;19.43;74.67
71392;BME280;59205;50.610;12.638;2022-10-16T13:09:56;95951.97;;;19.14;75.18
71392;BME280;59205;50.610;12.638;2022-10-16T13:15:13;95947.47;;;19.17;77.92
71392;BME280;59205;50.610;12.638;2022-10-16T13:17:45;95944.97;;;19.19;77.11
71392;BME280;59205;50.610;12.638;2022-10-16T13:23:19;95954.22;;;19.10;78.04
71392;BME280;59205;50.610;12.638;2022-10-16T13:28:41;95967.72;;;19.03;80.48
71392;BME280;59205;50.610;12.638;2022-10-16T13:31:20;95967.47;;;19.12;81.23
71392;BME280;59205;50.610;12.638;2022-10-16T13:33:47;95964.91;;;19.30;80.42
71392;BME280;59205;50.610;12.638;2022-10-16T13:36:21;95963.28;;;18.95;81.55
71392;BME280;59205;50.610;12.638;2022-10-16T13:38:46;95962.34;;;18.76;80.12
71392;BME280;59205;50.610;12.638;2022-10-16T13:41:17;95962.81;;;18.85;79.69
71392;BME280;59205;50.610;12.638;2022-10-16T13:43:46;95962.28;;;18.87;80.58
71392;BME280;59205;50.610;12.638;2022-10-16T13:46:15;95968.31;;;18.80;81.29
71392;BME280;59205;50.610;12.638;2022-10-16T13:48:41;95965.81;;;18.87;79.31
71392;BME280;59205;50.610;12.638;2022-10-16T13:51:15;95967.31;;;18.77;79.67
71392;BME280;59205;50.610;12.638;2022-10-16T13:53:41;95967.72;;;19.03;80.49
71392;BME280;59205;50.610;12.638;2022-10-16T13:56:19;95969.19;;;19.26;78.60
71392;BME280;59205;50.610;12.638;2022-10-16T13:58:46;95975.09;;;19.41;78.50
71392;BME280;59205;50.610;12.638;2022-10-16T14:01:42;95983.38;;;19.81;76.51
71392;BME280;59205;50.610;12.638;2022-10-16T14:04:11;95979.50;;;19.60;77.52
71392;BME280;59205;50.610;12.638;2022-10-16T14:06:42;95979.72;;;19.16;77.78
71392;BME280;59205;50.610;12.638;2022-10-16T14:09:14;95978.25;;;18.99;79.16
71392;BME280;59205;50.610;12.638;2022-10-16T14:11:48;95976.44;;;19.18;78.76
71392;BME280;59205;50.610;12.638;2022-10-16T14:14:15;95970.38;;;19.36;78.24
71392;BME280;59205;50.610;12.638;2022-10-16T14:16:42;95978.31;;;19.50;76.25
71392;BME280;59205;50.610;12.638;2022-10-16T14:19:21;95979.31;;;19.88;75.94
71392;BME280;59205;50.610;12.638;2022-10-16T14:21:48;95985.56;;;19.94;76.26
71392;BME280;59205;50.610;12.638;2022-10-16T14:24:25;95987.53;;;19.58;76.79
71392;BME280;59205;50.610;12.638;2022-10-16T14:26:51;95990.00;;;19.56;77.45
71392;BME280;59205;50.610;12.638;2022-10-16T14:29:20;95994.53;;;19.59;76.83